createdAt,value
2022-10-07T00:01:24.780Z,11.94
2022-10-07T00:03:51.247Z,11.95
2022-10-07T00:06:18.861Z,11.93
2022-10-07T00:08:46.443Z,11.90
2022-10-07T00:11:12.730Z,11.88
2022-10-07T00:13:40.070Z,11.88
2022-10-07T00:16:11.116Z,11.89
2022-10-07T00:18:37.879Z,11.84
2022-10-07T00:21:05.949Z,11.78
2022-10-07T00:23:32.866Z,11.82
2022-10-07T00:25:59.762Z,11.76
2022-10-07T00:28:26.099Z,11.73
2022-10-07T00:30:59.726Z,11.71
2022-10-07T00:33:26.373Z,11.73
2022-10-07T00:35:52.756Z,11.72
2022-10-07T00:38:19.084Z,11.71
2022-10-07T00:40:45.638Z,11.68
2022-10-07T00:43:26.380Z,11.64
2022-10-07T00:45:57.212Z,11.67
2022-10-07T00:48:26.638Z,11.62
2022-10-07T00:50:55.164Z,11.61
2022-10-07T00:53:22.268Z,11.56
2022-10-07T00:55:48.818Z,11.57
2022-10-07T00:58:15.200Z,11.57
2022-10-07T01:00:42.418Z,11.52
2022-10-07T01:03:08.790Z,11.51
2022-10-07T01:05:35.208Z,11.52
2022-10-07T01:08:01.800Z,11.46
2022-10-07T01:10:32.469Z,11.46
2022-10-07T01:13:10.324Z,11.46
2022-10-07T01:15:46.023Z,11.42
2022-10-07T01:18:12.385Z,11.43
2022-10-07T01:20:45.296Z,11.38
2022-10-07T01:23:31.084Z,11.37
2022-10-07T01:26:11.064Z,11.40
2022-10-07T01:28:38.966Z,11.34
2022-10-07T01:31:07.683Z,11.38
2022-10-07T01:33:35.080Z,11.32
2022-10-07T01:36:06.046Z,11.34
2022-10-07T01:38:33.832Z,11.28
2022-10-07T01:41:14.172Z,11.32
2022-10-07T01:43:42.178Z,11.25
2022-10-07T01:46:10.074Z,11.22
2022-10-07T01:48:36.648Z,11.26
2022-10-07T01:51:03.235Z,11.20
2022-10-07T01:53:29.711Z,11.21
2022-10-07T01:55:56.022Z,11.21
2022-10-07T01:58:30.952Z,11.22
2022-10-07T02:01:05.212Z,11.15
2022-10-07T02:03:35.158Z,11.15
2022-10-07T02:06:18.025Z,11.16
2022-10-07T02:08:46.419Z,11.12
2022-10-07T02:11:13.204Z,11.11
2022-10-07T02:13:59.979Z,11.09
2022-10-07T02:16:34.416Z,11.06
2022-10-07T02:19:02.976Z,11.05
2022-10-07T02:21:31.529Z,11.02
2022-10-07T02:23:59.186Z,11.02
2022-10-07T02:26:27.948Z,11.03
2022-10-07T02:28:56.687Z,11.06
2022-10-07T02:31:26.575Z,11.01
2022-10-07T02:33:54.069Z,10.97
2022-10-07T02:36:24.086Z,10.94
2022-10-07T02:38:50.925Z,10.87
2022-10-07T02:41:32.631Z,10.89
2022-10-07T02:44:26.722Z,10.86
2022-10-07T02:46:58.994Z,10.84
2022-10-07T02:49:26.430Z,10.84
2022-10-07T02:51:56.188Z,10.83
2022-10-07T02:54:26.107Z,10.84
2022-10-07T02:56:53.672Z,10.88
2022-10-07T02:59:21.656Z,10.83
2022-10-07T03:01:50.405Z,10.94
2022-10-07T03:04:18.587Z,10.75
2022-10-07T03:06:45.036Z,10.71
2022-10-07T03:09:11.896Z,10.65
2022-10-07T03:11:40.309Z,10.70
2022-10-07T03:14:07.864Z,10.74
2022-10-07T03:16:35.025Z,10.73
2022-10-07T03:19:01.517Z,10.71
2022-10-07T03:21:34.304Z,10.71
2022-10-07T03:24:04.648Z,10.64
2022-10-07T03:26:35.980Z,10.65
2022-10-07T03:29:03.576Z,10.67
2022-10-07T03:31:30.268Z,10.75
2022-10-07T03:33:59.568Z,10.71
2022-10-07T03:36:27.004Z,10.71
2022-10-07T03:38:55.504Z,10.69
2022-10-07T03:41:22.738Z,10.70
2022-10-07T03:43:52.312Z,10.50
2022-10-07T03:46:21.658Z,10.33
2022-10-07T03:48:49.218Z,10.53
2022-10-07T03:51:16.564Z,10.64
2022-10-07T03:53:43.912Z,10.58
2022-10-07T03:56:11.162Z,10.58
2022-10-07T03:58:40.363Z,10.61
2022-10-07T04:01:10.702Z,10.33
2022-10-07T04:03:41.524Z,10.48
2022-10-07T04:06:08.057Z,10.53
2022-10-07T04:08:35.307Z,10.56
2022-10-07T04:11:03.617Z,10.51
2022-10-07T04:13:31.701Z,10.54
2022-10-07T04:15:58.522Z,10.52
2022-10-07T04:18:26.200Z,10.48
2022-10-07T04:20:53.492Z,10.55
2022-10-07T04:23:21.788Z,10.51
2022-10-07T04:25:48.259Z,10.50
2022-10-07T04:28:25.971Z,10.49
2022-10-07T04:31:03.248Z,10.44
2022-10-07T04:33:34.542Z,10.33
2022-10-07T04:36:05.472Z,10.45
2022-10-07T04:38:32.685Z,10.45
2022-10-07T04:41:03.680Z,10.44
2022-10-07T04:43:33.838Z,10.30
2022-10-07T04:46:09.113Z,10.37
2022-10-07T04:48:43.528Z,10.32
2022-10-07T04:51:10.317Z,10.36
2022-10-07T04:53:39.024Z,10.11
2022-10-07T04:56:08.096Z,10.22
2022-10-07T04:58:34.588Z,10.24
2022-10-07T05:01:07.756Z,10.23
2022-10-07T05:03:36.017Z,10.17
2022-10-07T05:06:05.745Z,10.19
2022-10-07T05:08:33.675Z,10.26
2022-10-07T05:11:01.501Z,10.19
2022-10-07T05:13:31.392Z,10.21
2022-10-07T05:15:59.656Z,10.23
2022-10-07T05:18:27.068Z,10.19
2022-10-07T05:20:56.195Z,10.25
2022-10-07T05:23:28.395Z,10.27
2022-10-07T05:26:01.893Z,10.18
2022-10-07T05:28:29.683Z,10.16
2022-10-07T05:31:13.729Z,10.20
2022-10-07T05:33:43.944Z,9.93
2022-10-07T05:36:12.111Z,10.00
2022-10-07T05:38:39.531Z,10.07
2022-10-07T05:41:07.158Z,10.12
2022-10-07T05:43:38.028Z,9.93
2022-10-07T05:46:16.343Z,10.10
2022-10-07T05:48:48.260Z,10.08
2022-10-07T05:51:15.856Z,10.05
2022-10-07T05:53:43.009Z,10.02
2022-10-07T05:56:14.737Z,10.02
2022-10-07T05:58:41.863Z,9.79
2022-10-07T06:01:14.385Z,9.89
2022-10-07T06:03:42.831Z,9.91
2022-10-07T06:06:09.941Z,9.88
2022-10-07T06:08:36.630Z,9.92
2022-10-07T06:11:22.550Z,9.89
2022-10-07T06:13:49.903Z,9.79
2022-10-07T06:16:16.959Z,9.69
2022-10-07T06:18:44.257Z,9.80
2022-10-07T06:21:11.844Z,9.76
2022-10-07T06:23:39.033Z,9.83
2022-10-07T06:26:09.168Z,9.79
2022-10-07T06:28:38.102Z,9.87
2022-10-07T06:31:06.093Z,9.90
2022-10-07T06:33:34.555Z,9.93
2022-10-07T06:36:11.483Z,9.61
2022-10-07T06:38:38.392Z,9.73
2022-10-07T06:41:05.621Z,9.62
2022-10-07T06:43:34.108Z,9.68
2022-10-07T06:46:16.651Z,9.62
2022-10-07T06:48:46.024Z,9.53
2022-10-07T06:51:17.583Z,9.59
2022-10-07T06:53:44.874Z,9.73
2022-10-07T06:56:13.498Z,9.63
2022-10-07T06:58:43.440Z,9.50
2022-10-07T07:01:12.865Z,9.63
2022-10-07T07:03:40.321Z,9.51
2022-10-07T07:06:08.349Z,9.62
2022-10-07T07:08:35.247Z,9.64
2022-10-07T07:11:26.774Z,9.59
2022-10-07T07:13:54.722Z,9.79
2022-10-07T07:16:22.087Z,9.69
2022-10-07T07:18:55.552Z,9.49
2022-10-07T07:21:23.827Z,9.46
2022-10-07T07:23:51.174Z,9.55
2022-10-07T07:26:21.139Z,9.62
2022-10-07T07:28:52.921Z,9.61
2022-10-07T07:31:20.527Z,9.77
2022-10-07T07:33:52.338Z,9.81
2022-10-07T07:36:22.150Z,10.00
2022-10-07T07:38:53.133Z,9.89
2022-10-07T07:41:21.668Z,10.07
2022-10-07T07:43:49.092Z,10.14
2022-10-07T07:46:15.555Z,10.09
2022-10-07T07:48:42.008Z,10.29
2022-10-07T07:51:08.952Z,10.23
2022-10-07T07:53:36.932Z,10.27
2022-10-07T07:56:03.454Z,10.30
2022-10-07T07:58:29.947Z,10.42
2022-10-07T08:00:57.856Z,10.36
2022-10-07T08:03:25.233Z,10.39
2022-10-07T08:05:51.766Z,10.47
2022-10-07T08:08:18.239Z,10.70
2022-10-07T08:10:48.367Z,10.83
2022-10-07T08:13:17.596Z,10.94
2022-10-07T08:15:44.082Z,10.99
2022-10-07T08:18:10.647Z,10.88
2022-10-07T08:20:37.035Z,10.97
2022-10-07T08:23:05.387Z,10.96
2022-10-07T08:25:32.072Z,11.11
2022-10-07T08:28:01.865Z,11.29
2022-10-07T08:30:28.459Z,11.18
2022-10-07T08:33:00.410Z,11.30
2022-10-07T08:35:27.634Z,11.30
2022-10-07T08:37:54.141Z,11.51
2022-10-07T08:40:20.540Z,11.64
2022-10-07T08:42:47.280Z,11.61
2022-10-07T08:45:19.286Z,11.68
2022-10-07T08:47:47.486Z,11.79
2022-10-07T08:50:19.517Z,11.83
2022-10-07T08:52:46.433Z,11.93
2022-10-07T08:55:24.100Z,11.96
2022-10-07T08:58:08.079Z,11.93
2022-10-07T09:00:50.663Z,12.07
2022-10-07T09:03:20.287Z,12.17
2022-10-07T09:05:49.611Z,12.28
2022-10-07T09:08:28.384Z,12.39
2022-10-07T09:10:56.553Z,12.40
2022-10-07T09:13:26.158Z,12.44
2022-10-07T09:16:11.833Z,12.59
2022-10-07T09:18:40.022Z,12.61
2022-10-07T09:21:18.778Z,12.70
2022-10-07T09:23:46.304Z,12.83
2022-10-07T09:26:13.971Z,12.83
2022-10-07T09:28:40.655Z,13.04
2022-10-07T09:31:07.374Z,13.17
2022-10-07T09:33:36.949Z,13.20
2022-10-07T09:36:07.677Z,13.32
2022-10-07T09:38:34.129Z,13.46
2022-10-07T09:41:17.498Z,13.63
2022-10-07T09:44:04.162Z,13.65
2022-10-07T09:46:40.250Z,13.63
2022-10-07T09:49:07.397Z,13.76
2022-10-07T09:51:35.268Z,13.85
2022-10-07T09:54:05.970Z,13.86
2022-10-07T09:56:32.301Z,14.07
2022-10-07T09:59:30.894Z,14.18
2022-10-07T10:02:19.950Z,14.18
2022-10-07T10:04:57.145Z,14.33
2022-10-07T10:07:27.727Z,14.34
2022-10-07T10:09:55.432Z,14.40
2022-10-07T10:12:24.358Z,14.48
2022-10-07T10:14:50.983Z,14.57
2022-10-07T10:17:26.421Z,14.66
2022-10-07T10:19:52.840Z,14.75
2022-10-07T10:22:24.764Z,14.84
2022-10-07T10:25:09.877Z,14.81
2022-10-07T10:27:46.090Z,14.95
2022-10-07T10:30:22.218Z,15.21
2022-10-07T10:33:08.524Z,15.12
2022-10-07T10:35:40.384Z,15.23
2022-10-07T10:38:06.759Z,15.32
2022-10-07T10:40:39.905Z,15.44
2022-10-07T10:43:20.165Z,15.43
2022-10-07T10:46:05.562Z,15.60
2022-10-07T10:48:44.287Z,15.59
2022-10-07T10:51:31.609Z,15.69
2022-10-07T10:54:05.701Z,15.79
2022-10-07T10:56:32.098Z,15.78
2022-10-07T10:59:13.848Z,15.73
2022-10-07T11:01:41.811Z,15.87
2022-10-07T11:04:23.689Z,15.93
2022-10-07T11:06:52.952Z,16.01
2022-10-07T11:09:39.838Z,16.16
2022-10-07T11:12:15.063Z,15.97
2022-10-07T11:14:49.647Z,16.02
2022-10-07T11:17:16.755Z,15.96
2022-10-07T11:19:48.315Z,16.12
2022-10-07T11:22:20.063Z,16.17
2022-10-07T11:24:54.807Z,16.08
2022-10-07T11:27:27.423Z,16.07
2022-10-07T11:29:56.845Z,16.15
2022-10-07T11:32:29.293Z,16.33
2022-10-07T11:35:14.610Z,16.52
2022-10-07T11:37:40.991Z,16.53
2022-10-07T11:40:07.983Z,16.55
2022-10-07T11:42:40.394Z,16.72
2022-10-07T11:45:08.477Z,16.62
2022-10-07T11:47:39.959Z,16.74
2022-10-07T11:50:09.174Z,16.62
2022-10-07T11:52:40.868Z,16.70
2022-10-07T11:55:18.949Z,16.71
2022-10-07T11:57:49.797Z,16.80
2022-10-07T12:00:22.287Z,16.77
2022-10-07T12:02:49.563Z,16.71
2022-10-07T12:05:34.596Z,16.87
2022-10-07T12:08:01.029Z,16.88
2022-10-07T12:10:29.174Z,16.83
2022-10-07T12:12:55.776Z,16.73
2022-10-07T12:15:28.966Z,16.80
2022-10-07T12:17:56.419Z,16.81
2022-10-07T12:20:34.845Z,16.78
2022-10-07T12:23:22.611Z,16.82
2022-10-07T12:26:04.449Z,16.99
2022-10-07T12:28:30.948Z,16.94
2022-10-07T12:31:00.143Z,16.95
2022-10-07T12:33:42.994Z,17.00
2022-10-07T12:36:18.207Z,16.96
2022-10-07T12:38:59.821Z,17.11
2022-10-07T12:41:26.164Z,17.18
2022-10-07T12:44:04.522Z,17.06
2022-10-07T12:46:32.627Z,17.15
2022-10-07T12:49:05.014Z,17.07
2022-10-07T12:51:39.502Z,17.11
2022-10-07T12:54:12.817Z,17.20
2022-10-07T12:56:42.198Z,17.12
2022-10-07T12:59:33.390Z,17.15
2022-10-07T13:02:13.082Z,17.14
2022-10-07T13:04:45.361Z,17.15
2022-10-07T13:07:14.873Z,17.27
2022-10-07T13:10:00.132Z,17.30
2022-10-07T13:12:27.508Z,17.28
2022-10-07T13:15:02.961Z,17.20
2022-10-07T13:17:32.438Z,17.23
2022-10-07T13:20:22.122Z,17.18
2022-10-07T13:22:49.350Z,17.17
2022-10-07T13:25:18.879Z,17.22
2022-10-07T13:28:11.606Z,17.29
2022-10-07T13:30:40.860Z,17.26
2022-10-07T13:33:28.180Z,17.34
2022-10-07T13:36:07.119Z,17.37
2022-10-07T13:38:33.587Z,17.31
2022-10-07T13:41:06.636Z,17.42
2022-10-07T13:43:34.349Z,17.32
2022-10-07T13:50:00.776Z,17.38
2022-10-07T13:52:29.056Z,17.29
2022-10-07T13:54:55.481Z,17.29
2022-10-07T13:57:22.196Z,17.37
2022-10-07T13:59:50.385Z,17.21
2022-10-07T14:02:18.316Z,17.36
2022-10-07T14:05:01.970Z,17.20
2022-10-07T14:07:28.741Z,17.32
2022-10-07T14:09:58.262Z,17.30
2022-10-07T14:12:30.046Z,17.30
2022-10-07T14:15:00.914Z,17.19
2022-10-07T14:17:33.260Z,17.22
2022-10-07T14:20:05.511Z,17.17
2022-10-07T14:22:37.722Z,17.22
2022-10-07T14:25:05.797Z,17.13
2022-10-07T14:28:02.552Z,17.16
2022-10-07T14:30:29.345Z,17.23
2022-10-07T14:33:20.022Z,17.10
2022-10-07T14:35:48.530Z,17.15
2022-10-07T14:38:27.469Z,17.30
2022-10-07T14:40:53.872Z,17.09
2022-10-07T14:43:20.525Z,17.36
2022-10-07T14:45:46.953Z,17.33
2022-10-07T14:48:13.449Z,17.24
2022-10-07T14:50:40.043Z,17.18
2022-10-07T14:53:09.086Z,17.32
2022-10-07T14:55:35.465Z,17.15
2022-10-07T14:58:01.803Z,17.02
2022-10-07T15:00:29.511Z,17.17
2022-10-07T15:02:56.715Z,17.03
2022-10-07T15:05:23.317Z,16.92
2022-10-07T15:07:50.687Z,16.87
2022-10-07T15:10:19.249Z,16.89
2022-10-07T15:12:46.263Z,16.89
2022-10-07T15:15:13.579Z,16.82
2022-10-07T15:17:40.804Z,16.76
2022-10-07T15:20:08.558Z,16.79
2022-10-07T15:22:35.932Z,16.74
2022-10-07T15:25:05.745Z,16.81
2022-10-07T15:27:32.116Z,16.81
2022-10-07T15:29:58.917Z,16.82
2022-10-07T15:32:25.703Z,16.72
2022-10-07T15:34:54.144Z,16.68
2022-10-07T15:37:20.993Z,16.63
2022-10-07T15:39:47.461Z,16.51
2022-10-07T15:42:14.947Z,16.65
2022-10-07T15:44:43.564Z,16.51
2022-10-07T15:47:10.416Z,16.50
2022-10-07T15:49:36.810Z,16.35
2022-10-07T15:52:03.230Z,16.39
2022-10-07T15:54:30.551Z,16.39
2022-10-07T15:56:56.928Z,16.40
2022-10-07T15:59:23.353Z,16.44
2022-10-07T16:01:51.760Z,16.31
2022-10-07T16:04:18.596Z,16.29
2022-10-07T16:06:51.263Z,16.39
2022-10-07T16:09:18.446Z,16.43
2022-10-07T16:11:45.731Z,16.41
2022-10-07T16:14:12.349Z,16.40
2022-10-07T16:16:38.767Z,16.37
2022-10-07T16:19:05.166Z,16.31
2022-10-07T16:21:35.833Z,16.13
2022-10-07T16:24:03.732Z,16.13
2022-10-07T16:26:30.590Z,16.15
2022-10-07T16:29:17.287Z,16.14
2022-10-07T16:31:44.409Z,16.06
2022-10-07T16:34:11.866Z,16.06
2022-10-07T16:36:43.367Z,16.04
2022-10-07T16:39:11.277Z,15.97
2022-10-07T16:41:41.437Z,16.13
2022-10-07T16:44:08.174Z,16.34
2022-10-07T16:46:35.089Z,16.58
2022-10-07T16:49:01.555Z,16.78
2022-10-07T16:51:29.923Z,16.92
2022-10-07T16:54:01.665Z,17.00
2022-10-07T16:56:28.377Z,17.08
2022-10-07T16:58:57.141Z,17.19
2022-10-07T17:01:25.175Z,17.21
2022-10-07T17:03:51.692Z,17.19
2022-10-07T17:06:19.574Z,17.23
2022-10-07T17:08:48.271Z,17.23
2022-10-07T17:11:30.796Z,17.21
2022-10-07T17:14:01.544Z,17.21
2022-10-07T17:16:29.357Z,17.17
2022-10-07T17:18:56.203Z,17.19
2022-10-07T17:21:23.022Z,17.20
2022-10-07T17:23:49.877Z,17.17
2022-10-07T17:26:16.651Z,17.12
2022-10-07T17:28:43.128Z,17.11
2022-10-07T17:31:10.799Z,17.07
2022-10-07T17:33:43.269Z,17.08
2022-10-07T17:36:11.051Z,17.05
2022-10-07T17:38:39.140Z,17.02
2022-10-07T17:41:12.823Z,16.91
2022-10-07T17:43:40.184Z,16.93
2022-10-07T17:46:12.453Z,16.92
2022-10-07T17:48:46.933Z,16.90
2022-10-07T17:51:15.156Z,16.89
2022-10-07T17:53:42.079Z,16.79
2022-10-07T17:56:10.232Z,16.76
2022-10-07T17:58:37.316Z,16.68
2022-10-07T18:01:04.821Z,16.64
2022-10-07T18:03:31.304Z,16.57
2022-10-07T18:05:57.656Z,16.56
2022-10-07T18:08:25.641Z,16.53
2022-10-07T18:10:52.379Z,16.50
2022-10-07T18:13:37.438Z,16.45
2022-10-07T18:16:04.917Z,16.44
2022-10-07T18:18:31.784Z,16.40
2022-10-07T18:21:01.848Z,16.37
2022-10-07T18:23:29.245Z,16.31
2022-10-07T18:25:59.234Z,16.28
2022-10-07T18:28:28.572Z,16.26
2022-10-07T18:30:55.019Z,16.21
2022-10-07T18:33:21.366Z,16.19
2022-10-07T18:35:47.723Z,16.16
2022-10-07T18:38:14.091Z,16.12
2022-10-07T18:40:40.476Z,16.09
2022-10-07T18:43:06.851Z,16.06
2022-10-07T18:45:33.282Z,16.02
2022-10-07T18:47:59.639Z,15.98
2022-10-07T18:50:28.138Z,15.93
2022-10-07T18:52:57.758Z,15.90
2022-10-07T18:55:24.180Z,15.87
2022-10-07T18:57:50.528Z,15.82
2022-10-07T19:00:16.961Z,15.77
2022-10-07T19:02:45.752Z,15.73
2022-10-07T19:05:12.372Z,15.71
2022-10-07T19:07:38.751Z,15.69
2022-10-07T19:10:05.565Z,15.64
2022-10-07T19:13:04.343Z,15.63
2022-10-07T19:15:30.702Z,15.55
2022-10-07T19:17:57.153Z,15.53
2022-10-07T19:20:24.140Z,15.50
2022-10-07T19:22:50.513Z,15.48
2022-10-07T19:25:35.703Z,15.42
2022-10-07T19:28:02.193Z,15.42
2022-10-07T19:30:28.613Z,15.38
2022-10-07T19:32:55.214Z,15.34
2022-10-07T19:35:21.582Z,15.30
2022-10-07T19:37:48.454Z,15.29
2022-10-07T19:40:15.084Z,15.22
2022-10-07T19:42:41.437Z,15.18
2022-10-07T19:45:09.190Z,15.14
2022-10-07T19:47:35.539Z,15.12
2022-10-07T19:50:01.990Z,15.08
2022-10-07T19:52:28.588Z,15.08
2022-10-07T19:54:55.790Z,15.06
2022-10-07T19:57:22.181Z,15.04
2022-10-07T19:59:48.536Z,14.99
2022-10-07T20:02:14.907Z,14.96
2022-10-07T20:04:41.831Z,14.90
2022-10-07T20:07:08.377Z,14.87
2022-10-07T20:09:34.796Z,14.85
2022-10-07T20:12:01.285Z,14.82
2022-10-07T20:14:28.171Z,14.79
2022-10-07T20:16:55.896Z,14.79
2022-10-07T20:19:22.320Z,14.75
2022-10-07T20:21:50.828Z,14.70
2022-10-07T20:24:17.731Z,14.64
2022-10-07T20:26:44.924Z,14.66
2022-10-07T20:29:11.980Z,14.62
2022-10-07T20:31:39.569Z,14.58
2022-10-07T20:34:07.015Z,14.52
2022-10-07T20:36:34.687Z,14.50
2022-10-07T20:39:19.603Z,14.48
2022-10-07T20:42:07.822Z,14.51
2022-10-07T20:44:36.473Z,14.42
2022-10-07T20:47:03.831Z,14.39
2022-10-07T20:49:32.061Z,14.38
2022-10-07T20:51:59.585Z,14.34
2022-10-07T20:54:26.293Z,14.28
2022-10-07T20:56:53.835Z,14.32
2022-10-07T20:59:20.253Z,14.23
2022-10-07T21:01:47.025Z,14.18
2022-10-07T21:04:14.617Z,14.21
2022-10-07T21:06:41.396Z,14.15
2022-10-07T21:09:08.452Z,14.16
2022-10-07T21:11:35.198Z,14.16
2022-10-07T21:14:01.607Z,14.06
2022-10-07T21:16:29.307Z,14.04
2022-10-07T21:18:56.730Z,14.02
2022-10-07T21:21:24.067Z,14.01
2022-10-07T21:23:51.445Z,13.99
2022-10-07T21:26:18.252Z,13.98
2022-10-07T21:28:44.693Z,13.95
2022-10-07T21:31:12.888Z,13.91
2022-10-07T21:33:39.799Z,13.89
2022-10-07T21:36:07.341Z,13.84
2022-10-07T21:38:34.497Z,13.79
2022-10-07T21:41:11.880Z,13.77
2022-10-07T21:43:38.826Z,13.77
2022-10-07T21:46:05.248Z,13.62
2022-10-07T21:48:31.648Z,13.62
2022-10-07T21:51:00.013Z,13.63
2022-10-07T21:53:26.620Z,13.63
2022-10-07T21:55:53.066Z,13.65
2022-10-07T21:58:26.414Z,13.59
2022-10-07T22:00:52.781Z,13.56
2022-10-07T22:03:19.221Z,13.53
2022-10-07T22:05:45.562Z,13.51
2022-10-07T22:08:31.348Z,13.46
2022-10-07T22:11:16.306Z,13.49
2022-10-07T22:13:42.658Z,13.45
2022-10-07T22:16:14.532Z,13.40
2022-10-07T22:18:42.489Z,13.35
2022-10-07T22:21:10.924Z,13.27
2022-10-07T22:23:37.277Z,13.32
2022-10-07T22:26:04.366Z,13.31
2022-10-07T22:28:31.314Z,13.28
2022-10-07T22:30:58.927Z,13.24
2022-10-07T22:33:25.639Z,13.20
2022-10-07T22:35:52.024Z,13.24
2022-10-07T22:38:18.367Z,13.21
2022-10-07T22:40:44.884Z,13.17
2022-10-07T22:43:11.264Z,13.20
2022-10-07T22:45:37.679Z,13.19
2022-10-07T22:48:04.187Z,13.12
2022-10-07T22:50:31.369Z,13.19
2022-10-07T22:52:57.845Z,13.18
2022-10-07T22:55:24.252Z,13.08
2022-10-07T22:57:50.962Z,13.06
2022-10-07T23:00:17.623Z,13.06
2022-10-07T23:02:44.572Z,13.06
2022-10-07T23:05:11.455Z,13.05
2022-10-07T23:07:38.020Z,12.99
2022-10-07T23:10:04.629Z,13.01
2022-10-07T23:12:31.044Z,12.93
2022-10-07T23:14:57.391Z,12.99
2022-10-07T23:17:23.742Z,12.95
2022-10-07T23:19:50.068Z,12.91
2022-10-07T23:22:16.414Z,12.89
2022-10-07T23:24:42.789Z,12.88
2022-10-07T23:27:10.659Z,12.90
2022-10-07T23:29:37.023Z,12.71
2022-10-07T23:32:03.448Z,12.81
2022-10-07T23:34:29.812Z,12.80
2022-10-07T23:36:56.172Z,12.77
2022-10-07T23:39:22.580Z,12.76
2022-10-07T23:41:49.175Z,12.67
2022-10-07T23:44:15.527Z,12.72
2022-10-07T23:46:41.994Z,12.70
2022-10-07T23:49:08.445Z,12.70
2022-10-07T23:51:34.831Z,12.71
2022-10-07T23:54:02.157Z,12.63
2022-10-07T23:56:28.590Z,12.55
2022-10-07T23:58:54.957Z,12.57
